createdAt,value
2018-09-03T00:02:03.956Z,88.33
2018-09-03T00:04:31.487Z,85.75
2018-09-03T00:06:59.068Z,78.37
2018-09-03T00:09:30.062Z,83.65
2018-09-03T00:12:01.691Z,82.95
2018-09-03T00:14:29.240Z,83.55
2018-09-03T00:16:56.790Z,90.57
2018-09-03T00:19:24.353Z,91.37
2018-09-03T00:21:51.888Z,91.60
2018-09-03T00:24:19.410Z,92.55
2018-09-03T00:26:46.968Z,89.95
2018-09-03T00:29:14.494Z,80.50
2018-09-03T00:31:47.797Z,83.17
2018-09-03T00:34:21.118Z,82.82
2018-09-03T00:36:54.573Z,78.50
2018-09-03T00:39:27.869Z,78.70
2018-09-03T00:42:01.162Z,75.47
2018-09-03T00:44:34.460Z,85.05
2018-09-03T00:47:05.098Z,88.70
2018-09-03T00:49:32.669Z,91.75
2018-09-03T00:52:00.278Z,92.30
2018-09-03T00:54:27.919Z,95.55
2018-09-03T00:56:55.509Z,94.35
2018-09-03T00:59:23.053Z,98.55
2018-09-03T01:01:50.621Z,97.25
2018-09-03T01:04:18.156Z,105.00
2018-09-03T01:06:45.730Z,101.35
2018-09-03T01:09:13.246Z,99.20
2018-09-03T01:11:40.790Z,95.40
2018-09-03T01:14:08.308Z,93.75
2018-09-03T01:16:35.840Z,97.82
2018-09-03T01:19:03.384Z,98.47
2018-09-03T01:21:30.924Z,100.87
2018-09-03T01:23:58.447Z,98.50
2018-09-03T01:26:25.997Z,88.58
2018-09-03T01:28:53.531Z,85.92
2018-09-03T01:31:21.414Z,83.52
2018-09-03T01:33:50.756Z,86.75
2018-09-03T01:36:18.724Z,85.55
2018-09-03T01:38:46.352Z,86.08
2018-09-03T01:41:13.973Z,83.70
2018-09-03T01:43:41.517Z,81.60
2018-09-03T01:46:09.052Z,83.85
2018-09-03T01:48:36.565Z,81.08
2018-09-03T01:51:04.315Z,81.75
2018-09-03T01:53:31.842Z,81.02
2018-09-03T01:55:59.350Z,83.25
2018-09-03T01:58:26.890Z,83.22
2018-09-03T02:00:54.428Z,86.95
2018-09-03T02:03:21.952Z,84.58
2018-09-03T02:05:49.519Z,80.83
2018-09-03T02:08:17.077Z,82.27
2018-09-03T02:10:44.627Z,82.10
2018-09-03T02:13:12.183Z,80.00
2018-09-03T02:15:39.786Z,85.35
2018-09-03T02:18:07.322Z,83.25
2018-09-03T02:20:34.873Z,85.92
2018-09-03T02:23:02.662Z,83.78
2018-09-03T02:25:30.224Z,80.92
2018-09-03T02:27:57.779Z,81.57
2018-09-03T02:30:25.665Z,87.12
2018-09-03T02:32:53.255Z,80.22
2018-09-03T02:35:20.806Z,81.80
2018-09-03T02:37:48.350Z,87.02
2018-09-03T02:40:15.891Z,81.53
2018-09-03T02:42:43.441Z,86.95
2018-09-03T02:45:11.021Z,84.92
2018-09-03T02:47:38.792Z,80.72
2018-09-03T02:50:06.756Z,83.58
2018-09-03T02:52:34.714Z,81.15
2018-09-03T02:55:02.267Z,81.70
2018-09-03T02:57:29.817Z,81.97
2018-09-03T02:59:57.358Z,80.03
2018-09-03T03:02:24.907Z,80.55
2018-09-03T03:04:52.450Z,87.40
2018-09-03T03:07:20.009Z,81.08
2018-09-03T03:09:47.539Z,79.72
2018-09-03T03:12:20.993Z,80.07
2018-09-03T03:14:48.726Z,78.33
2018-09-03T03:17:16.265Z,76.85
2018-09-03T03:19:43.807Z,78.45
2018-09-03T03:22:11.353Z,76.07
2018-09-03T03:24:39.534Z,74.90
2018-09-03T03:27:07.148Z,78.92
2018-09-03T03:29:34.682Z,76.22
2018-09-03T03:32:02.279Z,75.00
2018-09-03T03:34:29.844Z,77.40
2018-09-03T03:36:57.414Z,79.10
2018-09-03T03:39:24.976Z,76.72
2018-09-03T03:41:52.527Z,76.90
2018-09-03T03:44:20.071Z,80.53
2018-09-03T03:46:47.620Z,73.52
2018-09-03T03:49:15.272Z,79.17
2018-09-03T03:51:42.812Z,74.90
2018-09-03T03:54:10.364Z,78.12
2018-09-03T03:56:37.911Z,75.03
2018-09-03T03:59:05.487Z,74.60
2018-09-03T04:01:33.041Z,75.55
2018-09-03T04:04:00.585Z,75.42
2018-09-03T04:06:28.203Z,72.35
2018-09-03T04:08:55.746Z,77.37
2018-09-03T04:11:23.290Z,73.60
2018-09-03T04:13:50.811Z,70.80
2018-09-03T04:16:18.348Z,72.78
2018-09-03T04:18:45.909Z,76.25
2018-09-03T04:21:13.469Z,72.62
2018-09-03T04:23:41.023Z,72.87
2018-09-03T04:26:08.572Z,75.00
2018-09-03T04:28:36.135Z,70.87
2018-09-03T04:31:03.696Z,70.28
2018-09-03T04:33:31.242Z,72.15
2018-09-03T04:35:59.010Z,75.40
2018-09-03T04:38:26.541Z,75.35
2018-09-03T04:40:54.092Z,79.25
2018-09-03T04:43:21.651Z,81.70
2018-09-03T04:45:49.217Z,77.22
2018-09-03T04:48:16.753Z,87.10
2018-09-03T04:50:44.291Z,84.28
2018-09-03T04:53:11.827Z,81.70
2018-09-03T04:55:39.359Z,79.45
2018-09-03T04:58:06.896Z,79.35
2018-09-03T05:00:34.439Z,79.67
2018-09-03T05:03:01.974Z,81.10
2018-09-03T05:05:29.525Z,78.37
2018-09-03T05:07:57.066Z,83.58
2018-09-03T05:10:24.587Z,87.08
2018-09-03T05:12:52.082Z,85.57
2018-09-03T05:15:19.611Z,90.85
2018-09-03T05:17:47.181Z,83.00
2018-09-03T05:20:14.707Z,89.47
2018-09-03T05:22:42.252Z,90.90
2018-09-03T05:25:09.796Z,91.63
2018-09-03T05:27:37.328Z,94.10
2018-09-03T05:30:06.250Z,106.17
2018-09-03T05:32:33.801Z,98.40
2018-09-03T05:35:01.328Z,103.75
2018-09-03T05:37:28.846Z,100.10
2018-09-03T05:40:04.211Z,102.65
2018-09-03T05:42:31.748Z,96.87
2018-09-03T05:44:59.284Z,100.90
2018-09-03T05:47:26.795Z,104.00
2018-09-03T05:49:54.323Z,99.00
2018-09-03T05:52:21.872Z,97.82
2018-09-03T05:54:49.400Z,101.15
2018-09-03T05:57:16.922Z,93.03
2018-09-03T05:59:44.430Z,89.55
2018-09-03T06:02:11.938Z,98.15
2018-09-03T06:04:39.563Z,87.05
2018-09-03T06:07:07.070Z,88.55
2018-09-03T06:09:34.602Z,79.77
2018-09-03T06:12:02.136Z,76.00
2018-09-03T06:14:29.665Z,74.92
2018-09-03T06:16:57.182Z,74.50
2018-09-03T06:19:24.720Z,74.05
2018-09-03T06:21:52.230Z,74.77
2018-09-03T06:24:19.771Z,75.65
2018-09-03T06:26:47.295Z,72.85
2018-09-03T06:29:14.834Z,73.72
2018-09-03T06:31:49.164Z,72.55
2018-09-03T06:34:16.678Z,74.05
2018-09-03T06:36:44.209Z,74.25
2018-09-03T06:39:11.855Z,74.25
2018-09-03T06:41:39.294Z,74.07
2018-09-03T06:44:06.825Z,70.83
2018-09-03T06:46:34.335Z,68.78
2018-09-03T06:49:01.863Z,68.78
2018-09-03T06:51:29.389Z,70.15
2018-09-03T06:53:56.945Z,68.47
2018-09-03T06:56:24.479Z,66.53
2018-09-03T06:58:52.036Z,68.92
2018-09-03T07:01:20.557Z,65.70
2018-09-03T07:03:48.071Z,64.97
2018-09-03T07:06:15.619Z,62.43
2018-09-03T07:08:43.164Z,62.88
2018-09-03T07:11:11.363Z,62.05
2018-09-03T07:13:38.914Z,64.05
2018-09-03T07:16:06.446Z,62.60
2018-09-03T07:18:33.999Z,62.13
2018-09-03T07:21:01.515Z,62.13
2018-09-03T07:23:29.069Z,64.65
2018-09-03T07:25:56.626Z,57.55
2018-09-03T07:28:24.165Z,52.43
2018-09-03T07:30:51.719Z,54.03
2018-09-03T07:33:19.257Z,52.38
2018-09-03T07:35:46.815Z,52.38
2018-09-03T07:38:14.344Z,49.95
2018-09-03T07:40:41.916Z,52.40
2018-09-03T07:43:09.497Z,49.42
2018-09-03T07:45:37.035Z,50.52
2018-09-03T07:48:04.628Z,51.08
2018-09-03T07:50:32.174Z,46.25
2018-09-03T07:52:59.721Z,45.63
2018-09-03T07:55:27.269Z,45.52
2018-09-03T07:57:54.821Z,42.90
2018-09-03T08:00:22.359Z,43.70
2018-09-03T08:02:49.904Z,41.92
2018-09-03T08:05:17.470Z,43.87
2018-09-03T08:07:45.017Z,44.65
2018-09-03T08:10:12.558Z,46.28
2018-09-03T08:12:40.091Z,44.00
2018-09-03T08:15:08.044Z,45.17
2018-09-03T08:17:35.603Z,43.15
2018-09-03T08:20:03.263Z,45.17
2018-09-03T08:22:30.849Z,41.85
2018-09-03T08:24:58.457Z,42.20
2018-09-03T08:27:26.028Z,41.88
2018-09-03T08:29:53.580Z,39.88
2018-09-03T08:32:21.117Z,40.67
2018-09-03T08:34:48.657Z,41.55
2018-09-03T08:37:16.205Z,39.23
2018-09-03T08:39:43.740Z,38.40
2018-09-03T08:42:11.320Z,39.58
2018-09-03T08:44:38.944Z,37.65
2018-09-03T08:47:06.706Z,38.35
2018-09-03T08:49:34.227Z,36.70
2018-09-03T08:52:01.927Z,37.23
2018-09-03T08:54:29.511Z,37.65
2018-09-03T08:56:57.039Z,35.60
2018-09-03T08:59:24.583Z,34.73
2018-09-03T09:01:52.112Z,34.53
2018-09-03T09:04:19.637Z,35.70
2018-09-03T09:06:47.175Z,35.03
2018-09-03T09:09:14.749Z,36.05
2018-09-03T09:11:42.338Z,36.03
2018-09-03T09:14:09.825Z,35.28
2018-09-03T09:16:37.384Z,33.42
2018-09-03T09:19:11.718Z,32.90
2018-09-03T09:21:39.294Z,30.80
2018-09-03T09:24:06.832Z,30.92
2018-09-03T09:26:34.391Z,31.40
2018-09-03T09:29:01.971Z,29.52
2018-09-03T09:31:29.540Z,29.00
2018-09-03T09:33:57.089Z,27.27
2018-09-03T09:36:24.654Z,28.30
2018-09-03T09:38:52.213Z,29.63
2018-09-03T09:41:19.806Z,23.57
2018-09-03T09:43:47.321Z,23.70
2018-09-03T09:46:14.894Z,22.15
2018-09-03T09:48:42.455Z,19.73
2018-09-03T09:51:10.013Z,20.68
2018-09-03T09:53:37.558Z,22.80
2018-09-03T09:56:05.121Z,23.25
2018-09-03T09:58:32.912Z,22.58
2018-09-03T10:01:06.255Z,22.93
2018-09-03T10:03:33.954Z,23.57
2018-09-03T10:06:01.638Z,22.52
2018-09-03T10:08:29.176Z,22.75
2018-09-03T10:10:56.715Z,23.90
2018-09-03T10:13:24.252Z,24.27
2018-09-03T10:15:51.788Z,22.35
2018-09-03T10:18:19.306Z,24.18
2018-09-03T10:20:46.833Z,25.30
2018-09-03T10:23:14.391Z,25.35
2018-09-03T10:25:41.910Z,25.25
2018-09-03T10:28:09.429Z,25.55
2018-09-03T10:30:36.958Z,26.45
2018-09-03T10:33:04.494Z,23.85
2018-09-03T10:35:32.019Z,23.32
2018-09-03T10:37:59.561Z,22.07
2018-09-03T10:40:27.131Z,23.07
2018-09-03T10:42:55.355Z,22.45
2018-09-03T10:45:22.912Z,21.55
2018-09-03T10:47:50.431Z,21.25
2018-09-03T10:50:17.955Z,20.70
2018-09-03T10:52:45.493Z,20.60
2018-09-03T10:55:13.042Z,21.80
2018-09-03T10:57:40.589Z,20.57
2018-09-03T11:00:08.136Z,20.15
2018-09-03T11:02:35.677Z,21.30
2018-09-03T11:05:03.215Z,19.35
2018-09-03T11:07:30.758Z,19.35
2018-09-03T11:09:58.304Z,19.77
2018-09-03T11:12:25.881Z,19.30
2018-09-03T11:14:53.419Z,18.87
2018-09-03T11:17:20.990Z,19.10
2018-09-03T11:19:53.720Z,17.40
2018-09-03T11:22:21.576Z,17.65
2018-09-03T11:24:49.145Z,18.00
2018-09-03T11:27:16.694Z,17.20
2018-09-03T11:29:44.231Z,16.73
2018-09-03T11:32:11.782Z,17.67
2018-09-03T11:34:39.435Z,18.00
2018-09-03T11:37:07.466Z,19.32
2018-09-03T11:39:35.017Z,17.73
2018-09-03T11:42:02.584Z,17.32
2018-09-03T11:44:30.130Z,17.85
2018-09-03T11:46:57.693Z,17.35
2018-09-03T11:49:25.261Z,17.10
2018-09-03T11:51:52.821Z,17.23
2018-09-03T11:54:20.462Z,15.95
2018-09-03T11:56:47.997Z,17.23
2018-09-03T11:59:15.535Z,17.82
2018-09-03T12:01:43.089Z,18.00
2018-09-03T12:04:10.649Z,17.75
2018-09-03T12:06:38.263Z,17.23
2018-09-03T12:09:13.855Z,17.90
2018-09-03T12:11:41.396Z,17.42
2018-09-03T12:14:13.547Z,16.97
2018-09-03T12:16:41.114Z,17.45
2018-09-03T12:19:08.635Z,17.42
2018-09-03T12:21:36.191Z,17.55
2018-09-03T12:24:03.724Z,17.85
2018-09-03T12:26:31.260Z,16.40
2018-09-03T12:28:58.832Z,17.60
2018-09-03T12:31:26.447Z,16.85
2018-09-03T12:33:53.948Z,17.65
2018-09-03T12:36:21.496Z,16.70
2018-09-03T12:38:49.034Z,18.42
2018-09-03T12:41:16.612Z,17.85
2018-09-03T12:43:44.186Z,18.25
2018-09-03T12:46:11.747Z,18.87
2018-09-03T12:48:39.693Z,18.92
2018-09-03T12:51:07.272Z,18.35
2018-09-03T12:53:34.833Z,18.98
2018-09-03T12:56:02.830Z,18.75
2018-09-03T12:58:30.420Z,18.77
2018-09-03T13:00:58.004Z,19.05
2018-09-03T13:03:25.497Z,18.95
2018-09-03T13:05:53.085Z,19.95
2018-09-03T13:08:20.620Z,19.62
2018-09-03T13:10:48.159Z,19.52
2018-09-03T13:13:15.730Z,19.73
2018-09-03T13:15:43.267Z,20.88
2018-09-03T13:18:10.821Z,19.95
2018-09-03T13:20:38.361Z,20.32
2018-09-03T13:23:05.894Z,20.57
2018-09-03T13:25:33.418Z,19.70
2018-09-03T13:28:00.951Z,19.60
2018-09-03T13:30:28.488Z,20.12
2018-09-03T13:32:56.091Z,19.23
2018-09-03T13:35:23.886Z,19.80
2018-09-03T13:37:51.415Z,18.80
2018-09-03T13:40:18.945Z,19.70
2018-09-03T13:42:46.493Z,19.27
2018-09-03T13:45:14.006Z,19.77
2018-09-03T13:47:41.546Z,19.35
2018-09-03T13:50:09.073Z,18.70
2018-09-03T13:52:36.609Z,19.05
2018-09-03T13:55:04.398Z,18.62
2018-09-03T13:57:31.885Z,18.48
2018-09-03T13:59:59.411Z,18.80
2018-09-03T14:02:26.941Z,17.80
2018-09-03T14:04:54.536Z,17.70
2018-09-03T14:07:22.037Z,18.00
2018-09-03T14:09:49.688Z,18.42
2018-09-03T14:12:17.199Z,18.67
2018-09-03T14:14:44.731Z,18.85
2018-09-03T14:17:12.267Z,18.45
2018-09-03T14:19:39.824Z,18.45
2018-09-03T14:22:07.400Z,18.30
2018-09-03T14:24:34.928Z,18.45
2018-09-03T14:27:02.461Z,17.57
2018-09-03T14:29:30.808Z,17.23
2018-09-03T14:31:58.331Z,17.20
2018-09-03T14:34:25.868Z,17.20
2018-09-03T14:36:53.403Z,15.48
2018-09-03T14:39:27.711Z,14.05
2018-09-03T14:41:55.227Z,11.97
2018-09-03T14:44:22.792Z,12.95
2018-09-03T14:46:57.090Z,12.15
2018-09-03T14:49:24.676Z,12.03
2018-09-03T14:51:52.159Z,12.43
2018-09-03T14:54:19.667Z,12.68
2018-09-03T14:56:47.229Z,12.18
2018-09-03T14:59:14.742Z,11.90
2018-09-03T15:01:42.267Z,11.80
2018-09-03T15:04:09.843Z,11.97
2018-09-03T15:06:37.410Z,12.13
2018-09-03T15:09:06.915Z,11.85
2018-09-03T15:11:34.456Z,12.25
2018-09-03T15:14:02.028Z,12.88
2018-09-03T15:16:31.250Z,12.20
2018-09-03T15:18:59.860Z,11.88
2018-09-03T15:21:27.386Z,11.73
2018-09-03T15:23:54.946Z,12.53
2018-09-03T15:26:22.578Z,12.45
2018-09-03T15:28:50.060Z,12.45
2018-09-03T15:31:17.840Z,12.05
2018-09-03T15:33:45.426Z,12.78
2018-09-03T15:36:13.089Z,12.40
2018-09-03T15:38:40.601Z,12.47
2018-09-03T15:41:08.605Z,12.40
2018-09-03T15:43:36.244Z,12.45
2018-09-03T15:46:05.170Z,12.50
2018-09-03T15:48:32.760Z,12.10
2018-09-03T15:51:00.315Z,12.37
2018-09-03T15:53:28.002Z,12.35
2018-09-03T15:55:55.822Z,12.58
2018-09-03T15:58:23.444Z,12.70
2018-09-03T16:00:51.001Z,12.68
2018-09-03T16:03:18.554Z,12.78
2018-09-03T16:05:46.078Z,12.45
2018-09-03T16:08:13.598Z,12.47
2018-09-03T16:10:41.129Z,13.72
2018-09-03T16:13:08.654Z,13.18
2018-09-03T16:15:36.191Z,13.25
2018-09-03T16:18:04.031Z,12.58
2018-09-03T16:20:31.612Z,12.58
2018-09-03T16:22:59.215Z,12.85
2018-09-03T16:25:26.769Z,12.90
2018-09-03T16:27:54.376Z,12.40
2018-09-03T16:30:21.855Z,12.75
2018-09-03T16:32:49.375Z,11.95
2018-09-03T16:35:16.915Z,12.58
2018-09-03T16:37:44.463Z,12.93
2018-09-03T16:40:12.025Z,13.48
2018-09-03T16:42:39.578Z,12.20
2018-09-03T16:45:07.185Z,12.63
2018-09-03T16:47:34.741Z,12.95
2018-09-03T16:50:02.309Z,12.95
2018-09-03T16:52:29.826Z,13.22
2018-09-03T16:54:57.361Z,12.80
2018-09-03T16:57:24.885Z,13.22
2018-09-03T16:59:52.425Z,13.55
2018-09-03T17:02:19.942Z,13.35
2018-09-03T17:04:47.488Z,13.35
2018-09-03T17:07:15.038Z,13.10
2018-09-03T17:09:42.584Z,13.75
2018-09-03T17:12:10.120Z,12.53
2018-09-03T17:14:37.643Z,12.80
2018-09-03T17:17:05.525Z,13.32
2018-09-03T17:19:33.047Z,13.28
2018-09-03T17:22:00.555Z,12.18
2018-09-03T17:24:28.090Z,13.45
2018-09-03T17:26:55.611Z,13.75
2018-09-03T17:29:23.141Z,13.05
2018-09-03T17:31:50.664Z,13.25
2018-09-03T17:34:18.209Z,13.05
2018-09-03T17:36:45.740Z,13.55
2018-09-03T17:39:13.271Z,12.75
2018-09-03T17:41:40.865Z,13.00
2018-09-03T17:44:08.398Z,13.80
2018-09-03T17:46:35.937Z,13.45
2018-09-03T17:49:03.504Z,13.70
2018-09-03T17:51:31.028Z,14.03
2018-09-03T17:53:58.534Z,13.72
2018-09-03T17:56:26.066Z,13.43
2018-09-03T17:58:53.624Z,14.53
2018-09-03T18:01:21.147Z,13.20
2018-09-03T18:03:48.850Z,14.33
2018-09-03T18:06:16.415Z,13.80
2018-09-03T18:08:43.966Z,13.93
2018-09-03T18:11:11.491Z,13.38
2018-09-03T18:13:39.016Z,14.20
2018-09-03T18:16:06.553Z,13.72
2018-09-03T18:18:34.066Z,14.20
2018-09-03T18:21:01.598Z,13.98
2018-09-03T18:23:29.106Z,13.72
2018-09-03T18:25:56.644Z,14.53
2018-09-03T18:28:24.202Z,15.03
2018-09-03T18:30:51.751Z,15.30
2018-09-03T18:33:19.265Z,14.85
2018-09-03T18:35:46.906Z,15.10
2018-09-03T18:38:14.437Z,15.60
2018-09-03T18:40:41.966Z,15.43
2018-09-03T18:43:09.485Z,15.13
2018-09-03T18:45:37.036Z,14.98
2018-09-03T18:48:04.767Z,14.47
2018-09-03T18:50:32.290Z,15.00
2018-09-03T18:52:59.846Z,15.08
2018-09-03T18:55:27.375Z,15.78
2018-09-03T18:57:54.911Z,15.38
2018-09-03T19:00:22.485Z,15.28
2018-09-03T19:02:50.008Z,15.90
2018-09-03T19:05:17.548Z,17.27
2018-09-03T19:07:45.076Z,16.85
2018-09-03T19:10:12.610Z,17.95
2018-09-03T19:12:40.127Z,17.37
2018-09-03T19:15:14.685Z,17.45
2018-09-03T19:17:49.045Z,17.00
2018-09-03T19:20:16.573Z,17.17
2018-09-03T19:22:44.095Z,17.10
2018-09-03T19:25:11.633Z,17.12
2018-09-03T19:27:39.172Z,17.50
2018-09-03T19:30:06.868Z,16.75
2018-09-03T19:32:34.400Z,17.30
2018-09-03T19:35:01.942Z,16.52
2018-09-03T19:37:29.475Z,16.32
2018-09-03T19:39:57.018Z,16.57
2018-09-03T19:42:24.561Z,17.30
2018-09-03T19:44:52.091Z,16.90
2018-09-03T19:47:19.624Z,17.42
2018-09-03T19:49:47.156Z,16.37
2018-09-03T19:52:14.684Z,17.42
2018-09-03T19:54:42.207Z,16.65
2018-09-03T19:57:09.732Z,16.37
2018-09-03T19:59:37.481Z,16.35
2018-09-03T20:02:05.178Z,16.95
2018-09-03T20:04:32.691Z,17.37
2018-09-03T20:07:00.285Z,16.05
2018-09-03T20:09:45.623Z,17.20
2018-09-03T20:12:13.203Z,17.27
2018-09-03T20:14:40.754Z,17.52
2018-09-03T20:17:08.329Z,17.95
2018-09-03T20:19:35.850Z,18.90
2018-09-03T20:22:03.403Z,17.75
2018-09-03T20:24:30.947Z,18.20
2018-09-03T20:26:58.512Z,18.48
2018-09-03T20:29:26.043Z,18.50
2018-09-03T20:31:53.605Z,18.15
2018-09-03T20:34:21.147Z,19.50
2018-09-03T20:36:48.687Z,18.27
2018-09-03T20:39:16.220Z,19.23
2018-09-03T20:41:43.758Z,19.07
2018-09-03T20:44:11.319Z,19.82
2018-09-03T20:46:38.939Z,19.60
2018-09-03T20:49:06.431Z,19.48
2018-09-03T20:51:33.996Z,19.65
2018-09-03T20:54:01.535Z,19.42
2018-09-03T20:56:29.082Z,19.35
2018-09-03T20:58:56.627Z,19.30
2018-09-03T21:01:24.228Z,18.25
2018-09-03T21:03:51.779Z,18.23
2018-09-03T21:06:19.331Z,18.90
2018-09-03T21:08:46.882Z,19.15
2018-09-03T21:11:32.740Z,18.20
2018-09-03T21:20:05.779Z,19.62
2018-09-03T21:22:33.340Z,19.10
2018-09-03T21:25:00.888Z,18.92
2018-09-03T21:27:28.456Z,18.27
2018-09-03T21:29:56.153Z,19.23
2018-09-03T21:32:23.719Z,19.15
2018-09-03T21:34:51.292Z,19.55
2018-09-03T21:43:18.226Z,20.85
2018-09-03T21:45:45.770Z,20.68
2018-09-03T21:48:13.317Z,20.75
2018-09-03T21:50:40.888Z,23.32
2018-09-03T21:53:08.453Z,22.37
2018-09-03T21:55:35.995Z,20.77
2018-09-03T21:58:03.549Z,20.82
2018-09-03T22:00:31.128Z,21.17
2018-09-03T22:02:58.671Z,21.80
2018-09-03T22:05:26.228Z,21.97
2018-09-03T22:07:53.785Z,23.02
2018-09-03T22:10:21.334Z,23.73
2018-09-03T22:12:48.892Z,23.60
2018-09-03T22:15:16.434Z,23.40
2018-09-03T22:17:43.993Z,24.30
2018-09-03T22:20:11.556Z,24.10
2018-09-03T22:22:39.116Z,25.48
2018-09-03T22:25:06.861Z,26.20
2018-09-03T22:27:34.424Z,25.57
2018-09-03T22:30:01.991Z,25.25
2018-09-03T22:32:29.563Z,25.43
2018-09-03T22:34:57.086Z,26.75
2018-09-03T22:37:24.636Z,25.30
2018-09-03T22:39:52.181Z,26.20
2018-09-03T22:42:22.865Z,25.82
2018-09-03T22:44:50.416Z,27.35
2018-09-03T22:47:17.957Z,27.60
2018-09-03T22:49:45.497Z,26.95
2018-09-03T22:52:13.047Z,26.55
2018-09-03T22:54:40.587Z,27.80
2018-09-03T22:57:08.124Z,26.90
2018-09-03T22:59:35.649Z,26.37
2018-09-03T23:02:03.212Z,25.62
2018-09-03T23:04:38.267Z,26.77
2018-09-03T23:07:05.816Z,28.00
2018-09-03T23:09:33.354Z,25.82
2018-09-03T23:12:00.891Z,25.52
2018-09-03T23:14:28.430Z,27.15
2018-09-03T23:16:55.964Z,25.72
2018-09-03T23:19:23.485Z,25.45
2018-09-03T23:21:51.018Z,25.60
2018-09-03T23:24:18.576Z,24.32
2018-09-03T23:26:46.118Z,24.72
2018-09-03T23:29:13.635Z,24.27
2018-09-03T23:31:41.187Z,23.95
2018-09-03T23:34:08.695Z,24.02
2018-09-03T23:36:36.233Z,25.12
2018-09-03T23:39:04.607Z,24.45
2018-09-03T23:41:32.118Z,24.25
2018-09-03T23:43:59.646Z,24.87
2018-09-03T23:46:27.177Z,25.77
2018-09-03T23:48:54.708Z,25.12
2018-09-03T23:51:22.246Z,25.52
2018-09-03T23:53:49.787Z,25.00
2018-09-03T23:56:17.312Z,24.37
2018-09-03T23:58:44.852Z,26.12
